sensor_id;sensor_type;location;lat;lon;timestamp;temperature;humidity
52415;DHT22;38340;52.964;6.086;2023-06-22T00:00:58;16.80;99.90
52415;DHT22;38340;52.964;6.086;2023-06-22T00:03:25;16.80;99.90
52415;DHT22;38340;52.964;6.086;2023-06-22T00:05:52;16.80;99.90
52415;DHT22;38340;52.964;6.086;2023-06-22T00:08:18;16.80;99.90
52415;DHT22;38340;52.964;6.086;2023-06-22T00:10:45;16.80;99.90
52415;DHT22;38340;52.964;6.086;2023-06-22T00:13:12;16.90;99.90
52415;DHT22;38340;52.964;6.086;2023-06-22T00:15:39;16.90;99.90
52415;DHT22;38340;52.964;6.086;2023-06-22T00:18:07;16.90;99.90
52415;DHT22;38340;52.964;6.086;2023-06-22T00:20:32;16.90;99.90
52415;DHT22;38340;52.964;6.086;2023-06-22T00:23:02;16.90;99.90
52415;DHT22;38340;52.964;6.086;2023-06-22T00:25:39;16.90;99.90
52415;DHT22;38340;52.964;6.086;2023-06-22T00:28:05;16.90;99.90
52415;DHT22;38340;52.964;6.086;2023-06-22T00:30:32;16.90;99.90
52415;DHT22;38340;52.964;6.086;2023-06-22T00:32:58;16.90;99.90
52415;DHT22;38340;52.964;6.086;2023-06-22T00:35:24;16.90;99.90
52415;DHT22;38340;52.964;6.086;2023-06-22T00:37:59;16.70;99.90
52415;DHT22;38340;52.964;6.086;2023-06-22T00:40:30;16.60;99.90
52415;DHT22;38340;52.964;6.086;2023-06-22T00:42:56;16.50;99.90
52415;DHT22;38340;52.964;6.086;2023-06-22T00:45:23;16.40;99.90
52415;DHT22;38340;52.964;6.086;2023-06-22T00:47:53;16.30;99.90
52415;DHT22;38340;52.964;6.086;2023-06-22T00:50:24;16.10;99.90
52415;DHT22;38340;52.964;6.086;2023-06-22T00:52:58;15.90;99.90
52415;DHT22;38340;52.964;6.086;2023-06-22T00:55:25;15.90;99.90
52415;DHT22;38340;52.964;6.086;2023-06-22T00:57:54;15.80;99.90
52415;DHT22;38340;52.964;6.086;2023-06-22T01:00:24;15.80;99.90
52415;DHT22;38340;52.964;6.086;2023-06-22T01:02:51;15.70;99.90
52415;DHT22;38340;52.964;6.086;2023-06-22T01:05:22;15.70;99.90
52415;DHT22;38340;52.964;6.086;2023-06-22T01:08:27;15.70;99.90
52415;DHT22;38340;52.964;6.086;2023-06-22T01:11:12;15.70;99.90
52415;DHT22;38340;52.964;6.086;2023-06-22T01:14:00;15.70;99.90
52415;DHT22;38340;52.964;6.086;2023-06-22T01:16:30;15.70;99.90
52415;DHT22;38340;52.964;6.086;2023-06-22T01:19:05;15.70;99.90
52415;DHT22;38340;52.964;6.086;2023-06-22T01:21:33;15.70;99.90
52415;DHT22;38340;52.964;6.086;2023-06-22T01:24:18;15.70;99.90
52415;DHT22;38340;52.964;6.086;2023-06-22T01:29:33;15.70;99.90
52415;DHT22;38340;52.964;6.086;2023-06-22T01:32:01;15.60;99.90
52415;DHT22;38340;52.964;6.086;2023-06-22T01:34:29;15.60;99.90
52415;DHT22;38340;52.964;6.086;2023-06-22T01:36:56;15.60;99.90
52415;DHT22;38340;52.964;6.086;2023-06-22T01:39:23;15.50;99.90
52415;DHT22;38340;52.964;6.086;2023-06-22T01:41:50;15.50;99.90
52415;DHT22;38340;52.964;6.086;2023-06-22T01:44:16;15.40;99.90
52415;DHT22;38340;52.964;6.086;2023-06-22T01:46:42;15.40;99.90
52415;DHT22;38340;52.964;6.086;2023-06-22T01:49:08;15.40;99.90
52415;DHT22;38340;52.964;6.086;2023-06-22T01:51:34;15.40;99.90
52415;DHT22;38340;52.964;6.086;2023-06-22T01:54:01;15.40;99.90
52415;DHT22;38340;52.964;6.086;2023-06-22T01:56:27;15.30;99.90
52415;DHT22;38340;52.964;6.086;2023-06-22T02:01:43;15.30;99.90
52415;DHT22;38340;52.964;6.086;2023-06-22T02:04:14;15.30;99.90
52415;DHT22;38340;52.964;6.086;2023-06-22T02:06:45;15.30;99.90
52415;DHT22;38340;52.964;6.086;2023-06-22T02:09:17;15.30;99.90
52415;DHT22;38340;52.964;6.086;2023-06-22T02:11:46;15.20;99.90
52415;DHT22;38340;52.964;6.086;2023-06-22T02:14:13;15.10;99.90
52415;DHT22;38340;52.964;6.086;2023-06-22T02:16:41;15.10;99.90
52415;DHT22;38340;52.964;6.086;2023-06-22T02:19:07;15.00;99.90
52415;DHT22;38340;52.964;6.086;2023-06-22T02:21:34;15.00;99.90
52415;DHT22;38340;52.964;6.086;2023-06-22T02:23:59;15.00;99.90
52415;DHT22;38340;52.964;6.086;2023-06-22T02:26:25;15.00;99.90
52415;DHT22;38340;52.964;6.086;2023-06-22T02:28:52;15.00;99.90
52415;DHT22;38340;52.964;6.086;2023-06-22T02:31:18;15.00;99.90
52415;DHT22;38340;52.964;6.086;2023-06-22T02:33:44;15.00;99.90
52415;DHT22;38340;52.964;6.086;2023-06-22T02:36:10;15.00;99.90
52415;DHT22;38340;52.964;6.086;2023-06-22T02:38:41;15.00;99.90
52415;DHT22;38340;52.964;6.086;2023-06-22T02:41:16;15.00;99.90
52415;DHT22;38340;52.964;6.086;2023-06-22T02:43:45;15.00;99.90
52415;DHT22;38340;52.964;6.086;2023-06-22T02:46:12;15.10;99.90
52415;DHT22;38340;52.964;6.086;2023-06-22T02:48:39;15.00;99.90
52415;DHT22;38340;52.964;6.086;2023-06-22T02:51:05;15.00;99.90
52415;DHT22;38340;52.964;6.086;2023-06-22T02:53:31;15.00;99.90
52415;DHT22;38340;52.964;6.086;2023-06-22T02:55:57;14.90;99.90
52415;DHT22;38340;52.964;6.086;2023-06-22T02:58:23;14.90;99.90
52415;DHT22;38340;52.964;6.086;2023-06-22T03:00:50;14.80;99.90
52415;DHT22;38340;52.964;6.086;2023-06-22T03:03:19;14.80;99.90
52415;DHT22;38340;52.964;6.086;2023-06-22T03:05:45;14.80;99.90
52415;DHT22;38340;52.964;6.086;2023-06-22T03:08:10;14.80;99.90
52415;DHT22;38340;52.964;6.086;2023-06-22T03:10:36;14.80;99.90
52415;DHT22;38340;52.964;6.086;2023-06-22T03:13:02;14.90;99.90
52415;DHT22;38340;52.964;6.086;2023-06-22T03:15:28;14.90;99.90
52415;DHT22;38340;52.964;6.086;2023-06-22T03:17:58;14.90;99.90
52415;DHT22;38340;52.964;6.086;2023-06-22T03:20:23;14.90;99.90
52415;DHT22;38340;52.964;6.086;2023-06-22T03:22:50;14.80;99.90
52415;DHT22;38340;52.964;6.086;2023-06-22T03:25:16;14.80;99.90
52415;DHT22;38340;52.964;6.086;2023-06-22T03:27:42;14.80;99.90
52415;DHT22;38340;52.964;6.086;2023-06-22T03:30:11;14.80;99.90
52415;DHT22;38340;52.964;6.086;2023-06-22T03:32:37;14.90;99.90
52415;DHT22;38340;52.964;6.086;2023-06-22T03:35:03;14.90;99.90
52415;DHT22;38340;52.964;6.086;2023-06-22T03:37:29;14.80;99.90
52415;DHT22;38340;52.964;6.086;2023-06-22T03:39:54;14.70;99.90
52415;DHT22;38340;52.964;6.086;2023-06-22T03:42:20;14.70;99.90
52415;DHT22;38340;52.964;6.086;2023-06-22T03:44:46;14.60;99.90
52415;DHT22;38340;52.964;6.086;2023-06-22T03:47:12;14.60;99.90
52415;DHT22;38340;52.964;6.086;2023-06-22T03:49:38;14.60;99.90
52415;DHT22;38340;52.964;6.086;2023-06-22T03:52:04;14.60;99.90
52415;DHT22;38340;52.964;6.086;2023-06-22T03:54:30;14.50;99.90
52415;DHT22;38340;52.964;6.086;2023-06-22T03:56:58;14.50;99.90
52415;DHT22;38340;52.964;6.086;2023-06-22T03:59:25;14.40;99.90
52415;DHT22;38340;52.964;6.086;2023-06-22T04:01:50;14.50;99.90
52415;DHT22;38340;52.964;6.086;2023-06-22T04:04:18;14.50;99.90
52415;DHT22;38340;52.964;6.086;2023-06-22T04:06:43;14.60;99.90
52415;DHT22;38340;52.964;6.086;2023-06-22T04:09:09;14.70;99.90
52415;DHT22;38340;52.964;6.086;2023-06-22T04:11:35;14.70;99.90
52415;DHT22;38340;52.964;6.086;2023-06-22T04:14:00;14.70;99.90
52415;DHT22;38340;52.964;6.086;2023-06-22T04:16:26;14.80;99.90
52415;DHT22;38340;52.964;6.086;2023-06-22T04:18:52;15.00;99.90
52415;DHT22;38340;52.964;6.086;2023-06-22T04:21:17;15.00;99.90
52415;DHT22;38340;52.964;6.086;2023-06-22T04:23:45;15.00;99.90
52415;DHT22;38340;52.964;6.086;2023-06-22T04:26:12;15.10;99.90
52415;DHT22;38340;52.964;6.086;2023-06-22T04:28:37;15.10;99.90
52415;DHT22;38340;52.964;6.086;2023-06-22T04:31:03;15.20;99.90
52415;DHT22;38340;52.964;6.086;2023-06-22T04:33:30;15.40;99.90
52415;DHT22;38340;52.964;6.086;2023-06-22T04:35:56;15.70;99.90
52415;DHT22;38340;52.964;6.086;2023-06-22T04:38:23;15.90;99.90
52415;DHT22;38340;52.964;6.086;2023-06-22T04:40:50;16.10;99.90
52415;DHT22;38340;52.964;6.086;2023-06-22T04:43:15;16.30;99.90
52415;DHT22;38340;52.964;6.086;2023-06-22T04:45:41;16.60;99.90
52415;DHT22;38340;52.964;6.086;2023-06-22T04:48:07;16.90;99.90
52415;DHT22;38340;52.964;6.086;2023-06-22T04:50:36;17.50;99.90
52415;DHT22;38340;52.964;6.086;2023-06-22T04:53:04;18.10;99.90
52415;DHT22;38340;52.964;6.086;2023-06-22T04:55:32;18.60;99.90
52415;DHT22;38340;52.964;6.086;2023-06-22T04:57:58;19.10;99.90
52415;DHT22;38340;52.964;6.086;2023-06-22T05:00:30;19.40;99.90
52415;DHT22;38340;52.964;6.086;2023-06-22T05:02:56;19.70;99.90
52415;DHT22;38340;52.964;6.086;2023-06-22T05:05:25;20.00;99.90
52415;DHT22;38340;52.964;6.086;2023-06-22T05:07:51;20.30;99.90
52415;DHT22;38340;52.964;6.086;2023-06-22T05:10:25;20.60;99.90
52415;DHT22;38340;52.964;6.086;2023-06-22T05:12:51;21.00;99.90
52415;DHT22;38340;52.964;6.086;2023-06-22T05:15:17;21.50;99.90
52415;DHT22;38340;52.964;6.086;2023-06-22T05:17:44;21.80;99.90
52415;DHT22;38340;52.964;6.086;2023-06-22T05:20:13;22.10;99.90
52415;DHT22;38340;52.964;6.086;2023-06-22T05:22:39;22.50;99.90
52415;DHT22;38340;52.964;6.086;2023-06-22T05:25:10;22.70;99.90
52415;DHT22;38340;52.964;6.086;2023-06-22T05:27:36;22.80;99.90
52415;DHT22;38340;52.964;6.086;2023-06-22T05:30:08;22.80;99.90
52415;DHT22;38340;52.964;6.086;2023-06-22T05:32:34;22.80;99.90
52415;DHT22;38340;52.964;6.086;2023-06-22T05:35:00;22.60;99.90
52415;DHT22;38340;52.964;6.086;2023-06-22T05:37:26;22.20;99.90
52415;DHT22;38340;52.964;6.086;2023-06-22T05:39:52;22.00;99.90
52415;DHT22;38340;52.964;6.086;2023-06-22T05:42:17;21.70;99.90
52415;DHT22;38340;52.964;6.086;2023-06-22T05:44:43;21.70;99.90
52415;DHT22;38340;52.964;6.086;2023-06-22T05:47:09;21.70;99.90
52415;DHT22;38340;52.964;6.086;2023-06-22T05:49:34;21.60;99.90
52415;DHT22;38340;52.964;6.086;2023-06-22T05:52:00;21.50;99.90
52415;DHT22;38340;52.964;6.086;2023-06-22T05:54:30;21.50;99.90
52415;DHT22;38340;52.964;6.086;2023-06-22T05:56:56;21.30;99.90
52415;DHT22;38340;52.964;6.086;2023-06-22T05:59:22;21.20;99.90
52415;DHT22;38340;52.964;6.086;2023-06-22T06:01:47;21.10;99.90
52415;DHT22;38340;52.964;6.086;2023-06-22T06:04:17;21.10;99.90
52415;DHT22;38340;52.964;6.086;2023-06-22T06:06:43;21.20;99.90
52415;DHT22;38340;52.964;6.086;2023-06-22T06:09:09;21.40;99.90
52415;DHT22;38340;52.964;6.086;2023-06-22T06:11:35;21.50;99.90
52415;DHT22;38340;52.964;6.086;2023-06-22T06:14:00;21.40;99.90
52415;DHT22;38340;52.964;6.086;2023-06-22T06:16:26;21.40;99.90
52415;DHT22;38340;52.964;6.086;2023-06-22T06:18:52;21.30;99.90
52415;DHT22;38340;52.964;6.086;2023-06-22T06:21:20;21.30;99.90
52415;DHT22;38340;52.964;6.086;2023-06-22T06:23:45;21.40;99.90
52415;DHT22;38340;52.964;6.086;2023-06-22T06:26:12;21.60;99.90
52415;DHT22;38340;52.964;6.086;2023-06-22T06:28:38;21.70;99.90
52415;DHT22;38340;52.964;6.086;2023-06-22T06:31:04;21.90;99.90
52415;DHT22;38340;52.964;6.086;2023-06-22T06:33:32;22.00;99.90
52415;DHT22;38340;52.964;6.086;2023-06-22T06:35:58;22.10;99.90
52415;DHT22;38340;52.964;6.086;2023-06-22T06:38:27;22.20;99.90
52415;DHT22;38340;52.964;6.086;2023-06-22T06:40:52;22.30;99.90
52415;DHT22;38340;52.964;6.086;2023-06-22T06:43:18;22.30;99.90
52415;DHT22;38340;52.964;6.086;2023-06-22T06:45:44;22.40;99.90
52415;DHT22;38340;52.964;6.086;2023-06-22T06:48:09;22.30;99.90
52415;DHT22;38340;52.964;6.086;2023-06-22T06:50:35;22.20;99.90
52415;DHT22;38340;52.964;6.086;2023-06-22T06:53:01;22.30;99.90
52415;DHT22;38340;52.964;6.086;2023-06-22T06:55:26;22.30;99.90
52415;DHT22;38340;52.964;6.086;2023-06-22T06:57:54;22.40;99.90
52415;DHT22;38340;52.964;6.086;2023-06-22T07:00:20;22.50;99.90
52415;DHT22;38340;52.964;6.086;2023-06-22T07:02:46;22.60;99.90
52415;DHT22;38340;52.964;6.086;2023-06-22T07:05:13;22.80;99.90
52415;DHT22;38340;52.964;6.086;2023-06-22T07:07:39;23.00;99.90
52415;DHT22;38340;52.964;6.086;2023-06-22T07:10:07;23.10;99.90
52415;DHT22;38340;52.964;6.086;2023-06-22T07:12:33;23.20;99.90
52415;DHT22;38340;52.964;6.086;2023-06-22T07:15:07;23.20;99.90
52415;DHT22;38340;52.964;6.086;2023-06-22T07:17:34;23.10;99.90
52415;DHT22;38340;52.964;6.086;2023-06-22T07:20:00;23.00;99.90
52415;DHT22;38340;52.964;6.086;2023-06-22T07:22:26;23.00;99.90
52415;DHT22;38340;52.964;6.086;2023-06-22T07:24:51;23.10;99.90
52415;DHT22;38340;52.964;6.086;2023-06-22T07:27:17;23.30;99.90
52415;DHT22;38340;52.964;6.086;2023-06-22T07:29:46;23.40;99.90
52415;DHT22;38340;52.964;6.086;2023-06-22T07:32:12;23.50;99.90
52415;DHT22;38340;52.964;6.086;2023-06-22T07:34:38;23.50;99.90
52415;DHT22;38340;52.964;6.086;2023-06-22T07:37:04;23.40;99.90
52415;DHT22;38340;52.964;6.086;2023-06-22T07:39:30;23.40;99.90
52415;DHT22;38340;52.964;6.086;2023-06-22T07:41:56;23.40;99.90
52415;DHT22;38340;52.964;6.086;2023-06-22T07:44:21;23.30;99.90
52415;DHT22;38340;52.964;6.086;2023-06-22T07:46:47;23.40;99.90
52415;DHT22;38340;52.964;6.086;2023-06-22T07:49:13;23.50;99.90
52415;DHT22;38340;52.964;6.086;2023-06-22T07:51:38;23.60;99.90
52415;DHT22;38340;52.964;6.086;2023-06-22T07:54:04;23.80;99.90
52415;DHT22;38340;52.964;6.086;2023-06-22T07:56:30;23.90;99.90
52415;DHT22;38340;52.964;6.086;2023-06-22T07:58:56;23.90;99.90
52415;DHT22;38340;52.964;6.086;2023-06-22T08:01:23;24.00;99.90
52415;DHT22;38340;52.964;6.086;2023-06-22T08:03:49;24.10;99.90
52415;DHT22;38340;52.964;6.086;2023-06-22T08:06:15;24.20;99.90
52415;DHT22;38340;52.964;6.086;2023-06-22T08:08:42;24.30;99.90
52415;DHT22;38340;52.964;6.086;2023-06-22T08:11:08;24.40;99.90
52415;DHT22;38340;52.964;6.086;2023-06-22T08:13:34;24.50;99.90
52415;DHT22;38340;52.964;6.086;2023-06-22T08:16:00;24.60;99.90
52415;DHT22;38340;52.964;6.086;2023-06-22T08:18:26;24.70;99.90
52415;DHT22;38340;52.964;6.086;2023-06-22T08:20:52;24.80;99.90
52415;DHT22;38340;52.964;6.086;2023-06-22T08:23:18;25.00;99.90
52415;DHT22;38340;52.964;6.086;2023-06-22T08:25:43;25.00;99.90
52415;DHT22;38340;52.964;6.086;2023-06-22T08:28:09;24.90;99.90
52415;DHT22;38340;52.964;6.086;2023-06-22T08:30:35;25.00;99.90
52415;DHT22;38340;52.964;6.086;2023-06-22T08:33:01;24.90;99.90
52415;DHT22;38340;52.964;6.086;2023-06-22T08:35:26;25.00;99.90
52415;DHT22;38340;52.964;6.086;2023-06-22T08:37:52;25.10;99.90
52415;DHT22;38340;52.964;6.086;2023-06-22T08:40:20;25.30;99.90
52415;DHT22;38340;52.964;6.086;2023-06-22T08:42:47;25.40;99.90
52415;DHT22;38340;52.964;6.086;2023-06-22T08:45:13;25.40;99.90
52415;DHT22;38340;52.964;6.086;2023-06-22T08:47:40;25.20;99.90
52415;DHT22;38340;52.964;6.086;2023-06-22T08:50:10;25.10;99.90
52415;DHT22;38340;52.964;6.086;2023-06-22T08:52:36;25.10;99.90
52415;DHT22;38340;52.964;6.086;2023-06-22T08:55:03;25.10;99.90
52415;DHT22;38340;52.964;6.086;2023-06-22T08:57:28;25.20;99.90
52415;DHT22;38340;52.964;6.086;2023-06-22T08:59:55;25.20;99.90
52415;DHT22;38340;52.964;6.086;2023-06-22T09:02:24;25.30;99.90
52415;DHT22;38340;52.964;6.086;2023-06-22T09:04:50;25.50;99.90
52415;DHT22;38340;52.964;6.086;2023-06-22T09:07:24;25.70;99.90
52415;DHT22;38340;52.964;6.086;2023-06-22T09:09:51;26.00;99.90
52415;DHT22;38340;52.964;6.086;2023-06-22T09:12:17;26.10;99.90
52415;DHT22;38340;52.964;6.086;2023-06-22T09:14:45;26.10;99.90
52415;DHT22;38340;52.964;6.086;2023-06-22T09:17:12;25.80;99.90
52415;DHT22;38340;52.964;6.086;2023-06-22T09:19:38;25.80;99.90
52415;DHT22;38340;52.964;6.086;2023-06-22T09:22:04;25.60;99.90
52415;DHT22;38340;52.964;6.086;2023-06-22T09:24:32;25.50;99.90
52415;DHT22;38340;52.964;6.086;2023-06-22T09:26:58;25.40;99.90
52415;DHT22;38340;52.964;6.086;2023-06-22T09:29:24;25.30;99.90
52415;DHT22;38340;52.964;6.086;2023-06-22T09:31:49;25.40;99.90
52415;DHT22;38340;52.964;6.086;2023-06-22T09:34:16;25.50;99.90
52415;DHT22;38340;52.964;6.086;2023-06-22T09:36:48;25.60;99.90
52415;DHT22;38340;52.964;6.086;2023-06-22T09:39:14;25.70;99.90
52415;DHT22;38340;52.964;6.086;2023-06-22T09:41:40;25.70;99.90
52415;DHT22;38340;52.964;6.086;2023-06-22T09:44:05;25.80;99.90
52415;DHT22;38340;52.964;6.086;2023-06-22T09:46:31;26.10;99.90
52415;DHT22;38340;52.964;6.086;2023-06-22T09:48:57;26.20;99.90
52415;DHT22;38340;52.964;6.086;2023-06-22T09:51:23;26.30;99.90
52415;DHT22;38340;52.964;6.086;2023-06-22T09:53:52;26.60;99.90
52415;DHT22;38340;52.964;6.086;2023-06-22T09:56:19;26.80;99.90
52415;DHT22;38340;52.964;6.086;2023-06-22T09:58:46;26.90;99.90
52415;DHT22;38340;52.964;6.086;2023-06-22T10:01:12;26.80;99.90
52415;DHT22;38340;52.964;6.086;2023-06-22T10:03:40;26.90;99.90
52415;DHT22;38340;52.964;6.086;2023-06-22T10:06:07;26.90;99.90
52415;DHT22;38340;52.964;6.086;2023-06-22T10:08:33;26.90;99.90
52415;DHT22;38340;52.964;6.086;2023-06-22T10:10:58;26.90;99.90
52415;DHT22;38340;52.964;6.086;2023-06-22T10:13:24;26.80;99.90
52415;DHT22;38340;52.964;6.086;2023-06-22T10:15:50;26.70;99.90
52415;DHT22;38340;52.964;6.086;2023-06-22T10:18:20;26.70;99.90
52415;DHT22;38340;52.964;6.086;2023-06-22T10:20:50;26.50;99.90
52415;DHT22;38340;52.964;6.086;2023-06-22T10:23:17;26.20;99.90
52415;DHT22;38340;52.964;6.086;2023-06-22T10:25:43;26.20;99.90
52415;DHT22;38340;52.964;6.086;2023-06-22T10:28:09;26.30;99.90
52415;DHT22;38340;52.964;6.086;2023-06-22T10:30:34;26.30;99.90
52415;DHT22;38340;52.964;6.086;2023-06-22T10:33:00;26.40;99.90
52415;DHT22;38340;52.964;6.086;2023-06-22T10:35:26;26.40;99.90
52415;DHT22;38340;52.964;6.086;2023-06-22T10:37:52;26.50;99.90
52415;DHT22;38340;52.964;6.086;2023-06-22T10:40:18;26.60;99.90
52415;DHT22;38340;52.964;6.086;2023-06-22T10:42:44;26.70;99.90
52415;DHT22;38340;52.964;6.086;2023-06-22T10:45:10;26.80;99.90
52415;DHT22;38340;52.964;6.086;2023-06-22T10:47:36;26.80;99.90
52415;DHT22;38340;52.964;6.086;2023-06-22T10:50:03;26.80;99.90
52415;DHT22;38340;52.964;6.086;2023-06-22T10:52:29;26.70;99.90
52415;DHT22;38340;52.964;6.086;2023-06-22T10:54:55;26.80;99.90
52415;DHT22;38340;52.964;6.086;2023-06-22T10:57:21;26.90;99.90
52415;DHT22;38340;52.964;6.086;2023-06-22T10:59:47;26.90;99.90
52415;DHT22;38340;52.964;6.086;2023-06-22T11:02:13;26.90;99.90
52415;DHT22;38340;52.964;6.086;2023-06-22T11:04:39;26.80;99.90
52415;DHT22;38340;52.964;6.086;2023-06-22T11:07:05;26.80;99.90
52415;DHT22;38340;52.964;6.086;2023-06-22T11:09:30;26.90;99.90
52415;DHT22;38340;52.964;6.086;2023-06-22T11:11:57;26.70;99.90
52415;DHT22;38340;52.964;6.086;2023-06-22T11:14:24;26.60;99.90
52415;DHT22;38340;52.964;6.086;2023-06-22T11:16:50;26.70;99.90
52415;DHT22;38340;52.964;6.086;2023-06-22T11:19:15;26.80;99.90
52415;DHT22;38340;52.964;6.086;2023-06-22T11:21:41;26.80;99.90
52415;DHT22;38340;52.964;6.086;2023-06-22T11:24:07;26.80;99.90
52415;DHT22;38340;52.964;6.086;2023-06-22T11:26:33;26.90;99.90
52415;DHT22;38340;52.964;6.086;2023-06-22T11:28:58;27.10;99.90
52415;DHT22;38340;52.964;6.086;2023-06-22T11:31:24;27.20;99.90
52415;DHT22;38340;52.964;6.086;2023-06-22T11:33:50;27.30;99.90
52415;DHT22;38340;52.964;6.086;2023-06-22T11:36:16;27.20;99.90
52415;DHT22;38340;52.964;6.086;2023-06-22T11:38:43;27.20;99.90
52415;DHT22;38340;52.964;6.086;2023-06-22T11:41:09;27.00;99.40
52415;DHT22;38340;52.964;6.086;2023-06-22T11:43:36;27.10;99.90
52415;DHT22;38340;52.964;6.086;2023-06-22T11:46:06;27.10;99.90
52415;DHT22;38340;52.964;6.086;2023-06-22T11:48:32;27.20;99.90
52415;DHT22;38340;52.964;6.086;2023-06-22T11:50:58;27.30;99.90
52415;DHT22;38340;52.964;6.086;2023-06-22T11:53:25;27.10;99.90
52415;DHT22;38340;52.964;6.086;2023-06-22T11:55:51;27.20;99.90
52415;DHT22;38340;52.964;6.086;2023-06-22T11:58:19;27.10;99.90
52415;DHT22;38340;52.964;6.086;2023-06-22T12:00:46;27.00;99.90
52415;DHT22;38340;52.964;6.086;2023-06-22T12:03:12;27.00;99.90
52415;DHT22;38340;52.964;6.086;2023-06-22T12:05:38;27.10;99.90
52415;DHT22;38340;52.964;6.086;2023-06-22T12:08:04;27.10;99.90
52415;DHT22;38340;52.964;6.086;2023-06-22T12:10:30;27.20;99.90
52415;DHT22;38340;52.964;6.086;2023-06-22T12:12:56;27.10;99.90
52415;DHT22;38340;52.964;6.086;2023-06-22T12:15:26;27.10;99.90
52415;DHT22;38340;52.964;6.086;2023-06-22T12:17:52;27.20;99.90
52415;DHT22;38340;52.964;6.086;2023-06-22T12:20:17;27.10;99.90
52415;DHT22;38340;52.964;6.086;2023-06-22T12:22:44;27.00;99.90
52415;DHT22;38340;52.964;6.086;2023-06-22T12:25:10;27.20;99.90
52415;DHT22;38340;52.964;6.086;2023-06-22T12:27:36;27.00;99.90
52415;DHT22;38340;52.964;6.086;2023-06-22T12:30:03;27.10;99.90
52415;DHT22;38340;52.964;6.086;2023-06-22T12:32:29;27.10;99.90
52415;DHT22;38340;52.964;6.086;2023-06-22T12:34:55;26.90;99.90
52415;DHT22;38340;52.964;6.086;2023-06-22T12:37:22;27.00;99.90
52415;DHT22;38340;52.964;6.086;2023-06-22T12:39:47;27.10;99.90
52415;DHT22;38340;52.964;6.086;2023-06-22T12:42:13;27.30;99.90
52415;DHT22;38340;52.964;6.086;2023-06-22T12:44:39;27.40;99.90
52415;DHT22;38340;52.964;6.086;2023-06-22T12:47:05;27.40;99.90
52415;DHT22;38340;52.964;6.086;2023-06-22T12:49:31;27.50;99.90
52415;DHT22;38340;52.964;6.086;2023-06-22T12:51:57;27.40;99.90
52415;DHT22;38340;52.964;6.086;2023-06-22T12:54:22;27.50;99.90
52415;DHT22;38340;52.964;6.086;2023-06-22T12:56:50;27.50;99.90
52415;DHT22;38340;52.964;6.086;2023-06-22T12:59:16;27.40;99.90
52415;DHT22;38340;52.964;6.086;2023-06-22T13:01:43;27.40;99.00
52415;DHT22;38340;52.964;6.086;2023-06-22T13:04:09;27.20;96.70
52415;DHT22;38340;52.964;6.086;2023-06-22T13:06:36;27.20;98.80
52415;DHT22;38340;52.964;6.086;2023-06-22T13:09:02;27.20;99.90
52415;DHT22;38340;52.964;6.086;2023-06-22T13:11:30;27.10;99.90
52415;DHT22;38340;52.964;6.086;2023-06-22T13:13:56;26.90;99.90
52415;DHT22;38340;52.964;6.086;2023-06-22T13:16:21;26.90;99.90
52415;DHT22;38340;52.964;6.086;2023-06-22T13:18:47;26.90;99.90
52415;DHT22;38340;52.964;6.086;2023-06-22T13:21:13;26.90;99.90
52415;DHT22;38340;52.964;6.086;2023-06-22T13:23:39;26.90;99.90
52415;DHT22;38340;52.964;6.086;2023-06-22T13:26:05;26.80;99.90
52415;DHT22;38340;52.964;6.086;2023-06-22T13:28:31;26.90;99.90
52415;DHT22;38340;52.964;6.086;2023-06-22T13:30:57;26.90;99.90
52415;DHT22;38340;52.964;6.086;2023-06-22T13:33:23;26.70;99.90
52415;DHT22;38340;52.964;6.086;2023-06-22T13:35:48;26.50;99.90
52415;DHT22;38340;52.964;6.086;2023-06-22T13:38:14;26.40;99.90
52415;DHT22;38340;52.964;6.086;2023-06-22T13:40:40;26.20;99.90
52415;DHT22;38340;52.964;6.086;2023-06-22T13:43:06;26.00;99.90
52415;DHT22;38340;52.964;6.086;2023-06-22T13:45:32;25.90;99.90
52415;DHT22;38340;52.964;6.086;2023-06-22T13:47:58;25.70;99.90
52415;DHT22;38340;52.964;6.086;2023-06-22T13:50:24;25.90;99.90
52415;DHT22;38340;52.964;6.086;2023-06-22T13:52:50;25.80;99.90
52415;DHT22;38340;52.964;6.086;2023-06-22T13:55:15;25.70;99.90
52415;DHT22;38340;52.964;6.086;2023-06-22T13:57:42;25.60;99.90
52415;DHT22;38340;52.964;6.086;2023-06-22T14:00:08;25.40;99.90
52415;DHT22;38340;52.964;6.086;2023-06-22T14:02:34;25.50;99.90
52415;DHT22;38340;52.964;6.086;2023-06-22T14:05:00;25.40;99.90
52415;DHT22;38340;52.964;6.086;2023-06-22T14:07:26;25.30;99.90
52415;DHT22;38340;52.964;6.086;2023-06-22T14:09:52;25.10;99.90
52415;DHT22;38340;52.964;6.086;2023-06-22T14:12:17;25.00;99.90
52415;DHT22;38340;52.964;6.086;2023-06-22T14:14:43;24.90;99.90
52415;DHT22;38340;52.964;6.086;2023-06-22T14:17:09;24.70;99.90
52415;DHT22;38340;52.964;6.086;2023-06-22T14:19:35;24.80;99.90
52415;DHT22;38340;52.964;6.086;2023-06-22T14:22:01;24.70;99.90
52415;DHT22;38340;52.964;6.086;2023-06-22T14:24:27;24.60;99.90
52415;DHT22;38340;52.964;6.086;2023-06-22T14:26:54;24.60;99.90
52415;DHT22;38340;52.964;6.086;2023-06-22T14:29:20;24.60;99.90
52415;DHT22;38340;52.964;6.086;2023-06-22T14:31:46;24.60;99.90
52415;DHT22;38340;52.964;6.086;2023-06-22T14:34:12;24.60;99.90
52415;DHT22;38340;52.964;6.086;2023-06-22T14:36:38;24.60;99.90
52415;DHT22;38340;52.964;6.086;2023-06-22T14:39:03;24.50;99.90
52415;DHT22;38340;52.964;6.086;2023-06-22T14:41:30;24.30;99.90
52415;DHT22;38340;52.964;6.086;2023-06-22T14:43:56;24.30;99.90
52415;DHT22;38340;52.964;6.086;2023-06-22T14:46:22;24.30;99.90
52415;DHT22;38340;52.964;6.086;2023-06-22T14:48:48;24.10;99.90
52415;DHT22;38340;52.964;6.086;2023-06-22T14:51:13;24.20;99.90
52415;DHT22;38340;52.964;6.086;2023-06-22T14:53:39;24.20;99.90
52415;DHT22;38340;52.964;6.086;2023-06-22T14:56:05;24.20;99.90
52415;DHT22;38340;52.964;6.086;2023-06-22T14:58:32;24.10;99.90
52415;DHT22;38340;52.964;6.086;2023-06-22T15:01:04;24.10;99.90
52415;DHT22;38340;52.964;6.086;2023-06-22T15:03:31;24.10;99.90
52415;DHT22;38340;52.964;6.086;2023-06-22T15:05:58;24.00;99.90
52415;DHT22;38340;52.964;6.086;2023-06-22T15:08:24;23.80;99.90
52415;DHT22;38340;52.964;6.086;2023-06-22T15:10:52;23.60;99.90
52415;DHT22;38340;52.964;6.086;2023-06-22T15:13:18;23.50;99.90
52415;DHT22;38340;52.964;6.086;2023-06-22T15:15:46;23.30;99.90
52415;DHT22;38340;52.964;6.086;2023-06-22T15:18:16;23.30;99.90
52415;DHT22;38340;52.964;6.086;2023-06-22T15:20:42;23.30;99.90
52415;DHT22;38340;52.964;6.086;2023-06-22T15:23:11;23.30;99.90
52415;DHT22;38340;52.964;6.086;2023-06-22T15:25:37;23.20;99.90
52415;DHT22;38340;52.964;6.086;2023-06-22T15:28:03;23.30;99.90
52415;DHT22;38340;52.964;6.086;2023-06-22T15:30:29;23.20;99.90
52415;DHT22;38340;52.964;6.086;2023-06-22T15:32:55;23.20;99.90